logo
Search for airport 
image banner adimage banner adimage banner ad
image banner ad

1Q9 - Mili

Located in Mili Island, Marshall Islands

ICAO - 1Q9, IATA -

Data provided by Airmate  

General information

Coordinates: N6°4'60" E171°43'60"
Elevation is 4 feet MSL.
Magnetic variation is 10° East
View others Airports in Mili

Operational data

Special qualification required
Current time UTC:
Current local time:
Weather at : - ( 0 km )
METAR: LWSK 131920Z 02012KT CAVOK 21/11 Q1024 NOSIG
View NOTAMs / SUP AIP / TFR affecting this airport [VIEW]
Communications frequencies: [VIEW]

Runways:

RWY identifierQFULength (ft)Width (ft)SurfaceLDA (ft)
05285075GRASS
23285075GRASS

Airport contact information

Address: Mili Island Marshall Islands

Satellite view of 1Q9